ME3 weather

Bradford Camps Seaplane Base
Ashland, Maine, United States

Public forecast

Using degrees Fahrenheit for public forecast. Weather courtesy of forecast.io.

METAR (pilot weather report)

Closest report is Northern Maine Regional Airport at Presque Isle, 43.4 nm (80.3 km) ENE. Retrieved 2019/07/18 01:56 UTC (20 minutes ago):

KPQI 180156Z AUTO 31005KT 10SM CLR 18/12 A2991 RMK AO2 SLP152 T01780122

TAF (pilot weather forecast)

Forecast is more than 12 hours old.

Closest forecast is Northern Maine Regional Airport at Presque Isle, 43.4 nm (80.3 km) ENE. Retrieved 2019/07/17 00:34 UTC (1 day ago):

TAF KPQI 172332Z 1800/1824 33010KT P6SM SCT070 FM180500 31005KT P6SM SKC